KPUC/PUC METAR and TAF weather

Enter ICAO airport designator
Station Type Date Time Source
KPUC METAR 2022/09/28 17:53 UTC NOAA

KPUC 281753Z AUTO 13007KT 10SM CLR 22/04 A3039 RMK AO2 SLP231 T02170044 10217 20128 53004


Station Type Date Time Source
KPUC Decoded METAR 2022/09/28 17:53 UTC NOAA

PRICE CARBON COUNTY AIRPORT, UT, United States (KPUC) 39-37N 110-45W 2091M
Sep 28, 2022 - 01:53 PM EDT / 2022.09.28 1753 UTC
Wind: from the SE (130 degrees) at 8 MPH (7 KT):0
Visibility: 10 mile(s):0
Sky conditions: clear
Temperature: 71.1 F (21.7 C)
Dew Point: 39.9 F (4.4 C)
Relative Humidity: 32%
Pressure (altimeter): 30.39 in. Hg (1029 hPa)
Pressure tendency: 0.01 inches (0.4 hPa) higher than three hours ago
ob: KPUC 281753Z AUTO 13007KT 10SM CLR 22/04 A3039 RMK AO2 SLP231 T02170044 10217 20128 53004
cycle: 18

Station Type Date Time Source
KPUC TAF UTC NOAA

Error!

Example: see airport list